createdAt,value
2017-02-22T00:00:25.541Z,0
2017-02-22T00:01:40.097Z,0
2017-02-22T00:03:25.593Z,0
2017-02-22T00:04:25.635Z,0
2017-02-22T00:05:25.627Z,0
2017-02-22T00:06:25.644Z,0
2017-02-22T00:07:25.673Z,0
2017-02-22T00:08:25.680Z,0
2017-02-22T00:09:40.224Z,0
2017-02-22T00:10:25.721Z,0
2017-02-22T00:11:40.268Z,0
2017-02-22T00:12:25.784Z,0
2017-02-22T00:13:25.781Z,0
2017-02-22T00:14:25.794Z,0
2017-02-22T00:15:25.807Z,0
2017-02-22T00:16:25.833Z,0
2017-02-22T00:17:25.844Z,0
2017-02-22T00:18:25.855Z,0
2017-02-22T00:19:25.872Z,0
2017-02-22T00:20:40.419Z,0
2017-02-22T00:21:25.922Z,0
2017-02-22T00:22:40.452Z,0
2017-02-22T00:23:25.941Z,0
2017-02-22T00:24:40.485Z,0
2017-02-22T00:26:26.003Z,0
2017-02-22T00:27:26.031Z,0
2017-02-22T00:28:41.016Z,0
2017-02-22T00:29:26.044Z,0
2017-02-22T00:30:40.596Z,0
2017-02-22T00:31:26.082Z,0
2017-02-22T00:32:40.630Z,0
2017-02-22T00:33:25.728Z,0
2017-02-22T00:34:40.659Z,0
2017-02-22T00:35:26.151Z,0
2017-02-22T00:36:26.164Z,0
2017-02-22T00:37:26.195Z,0
2017-02-22T00:38:26.200Z,0
2017-02-22T00:39:26.217Z,0
2017-02-22T00:40:25.863Z,0
2017-02-22T00:41:26.286Z,0
2017-02-22T00:42:40.810Z,0
2017-02-22T00:43:25.913Z,0
2017-02-22T00:45:26.322Z,0
2017-02-22T00:46:26.337Z,0
2017-02-22T00:47:26.356Z,0
2017-02-22T00:48:26.380Z,0
2017-02-22T00:49:26.391Z,0
2017-02-22T00:50:26.408Z,0
2017-02-22T00:51:26.440Z,0
2017-02-22T00:52:26.446Z,0
2017-02-22T00:53:40.983Z,0
2017-02-22T00:54:26.479Z,0
2017-02-22T00:56:41.054Z,0
2017-02-22T00:58:26.571Z,0
2017-02-22T00:59:26.577Z,0
2017-02-22T01:00:41.107Z,0
2017-02-22T01:01:41.129Z,0
2017-02-22T01:02:26.632Z,0
2017-02-22T01:03:26.643Z,0
2017-02-22T01:04:26.682Z,0
2017-02-22T01:05:26.677Z,0
2017-02-22T01:06:26.689Z,0
2017-02-22T01:08:26.715Z,0
2017-02-22T01:09:26.734Z,0
2017-02-22T01:10:41.280Z,0
2017-02-22T01:11:41.296Z,0
2017-02-22T01:12:41.313Z,0
2017-02-22T01:13:26.804Z,0
2017-02-22T01:14:26.434Z,0
2017-02-22T01:15:26.858Z,0
2017-02-22T01:16:41.382Z,0
2017-02-22T01:17:26.880Z,0
2017-02-22T01:18:26.892Z,0
2017-02-22T01:19:26.902Z,0
2017-02-22T01:20:26.923Z,0
2017-02-22T01:21:26.951Z,0
2017-02-22T01:22:41.485Z,0
2017-02-22T01:23:26.989Z,0
2017-02-22T01:24:26.988Z,0
2017-02-22T01:25:27.021Z,0
2017-02-22T01:26:27.028Z,0
2017-02-22T01:27:27.044Z,0
2017-02-22T01:28:27.058Z,0
2017-02-22T01:29:27.087Z,0
2017-02-22T01:30:27.092Z,0
2017-02-22T01:31:41.639Z,0
2017-02-22T01:32:27.144Z,0
2017-02-22T01:33:41.677Z,0
2017-02-22T01:34:27.172Z,0
2017-02-22T01:35:27.178Z,0
2017-02-22T01:36:26.810Z,0
2017-02-22T01:37:41.739Z,0
2017-02-22T01:38:27.233Z,0
2017-02-22T01:39:27.246Z,0
2017-02-22T01:40:26.893Z,0
2017-02-22T01:41:27.279Z,0
2017-02-22T01:42:27.309Z,0
2017-02-22T01:43:26.928Z,0
2017-02-22T01:44:27.337Z,0
2017-02-22T01:45:41.491Z,0
2017-02-22T01:46:26.592Z,0
2017-02-22T01:47:26.997Z,0
2017-02-22T01:48:27.404Z,0
2017-02-22T01:49:27.420Z,0
2017-02-22T01:50:27.440Z,0
2017-02-22T01:51:27.450Z,0
2017-02-22T01:52:27.472Z,0
2017-02-22T01:53:27.491Z,0
2017-02-22T01:54:27.503Z,0
2017-02-22T01:55:27.139Z,0
2017-02-22T01:57:27.557Z,0
2017-02-22T01:58:27.608Z,0
2017-02-22T01:59:42.116Z,0
2017-02-22T02:00:27.616Z,0
2017-02-22T02:01:27.630Z,0
2017-02-22T02:02:26.886Z,0
2017-02-22T02:03:42.187Z,0
2017-02-22T02:04:27.674Z,0
2017-02-22T02:05:27.304Z,0
2017-02-22T02:06:27.723Z,0
2017-02-22T02:07:27.751Z,0
2017-02-22T02:08:27.359Z,0
2017-02-22T02:09:27.399Z,0
2017-02-22T02:11:27.419Z,0
2017-02-22T02:12:27.826Z,0
2017-02-22T02:13:27.842Z,0
2017-02-22T02:15:27.877Z,0
2017-02-22T02:16:27.883Z,0
2017-02-22T02:18:27.920Z,0
2017-02-22T02:19:42.462Z,0
2017-02-22T02:20:27.950Z,0
2017-02-22T02:21:27.967Z,0
2017-02-22T02:22:27.983Z,0
2017-02-22T02:23:27.998Z,0
2017-02-22T02:24:42.545Z,0
2017-02-22T02:25:28.044Z,0
2017-02-22T02:26:28.052Z,0
2017-02-22T02:27:28.079Z,0
2017-02-22T02:28:28.099Z,0
2017-02-22T02:29:28.141Z,0
2017-02-22T02:30:28.127Z,0
2017-02-22T02:31:27.757Z,0
2017-02-22T02:32:28.155Z,0
2017-02-22T02:33:28.187Z,0
2017-02-22T02:35:42.744Z,0
2017-02-22T02:36:28.236Z,0
2017-02-22T02:37:28.265Z,0
2017-02-22T02:38:28.272Z,0
2017-02-22T02:39:28.276Z,0
2017-02-22T02:40:28.292Z,0
2017-02-22T02:41:28.318Z,0
2017-02-22T02:42:28.335Z,0
2017-02-22T02:43:28.376Z,0
2017-02-22T02:44:28.363Z,0
2017-02-22T02:46:42.938Z,0
2017-02-22T02:47:28.415Z,0
2017-02-22T02:48:28.435Z,0
2017-02-22T02:49:28.065Z,0
2017-02-22T02:51:43.021Z,0
2017-02-22T02:52:28.515Z,0
2017-02-22T02:53:28.523Z,0
2017-02-22T02:55:28.163Z,0
2017-02-22T02:56:43.099Z,0
2017-02-22T02:57:28.599Z,0
2017-02-22T02:58:28.614Z,0
2017-02-22T02:59:28.620Z,0
2017-02-22T03:00:28.254Z,0
2017-02-22T03:01:43.185Z,0
2017-02-22T03:02:28.676Z,0
2017-02-22T03:03:28.309Z,0
2017-02-22T03:04:28.713Z,0
2017-02-22T03:05:28.366Z,0
2017-02-22T03:06:43.280Z,0
2017-02-22T03:07:27.986Z,0
2017-02-22T03:08:28.781Z,0
2017-02-22T03:09:28.795Z,0
2017-02-22T03:10:28.837Z,0
2017-02-22T03:11:43.360Z,0
2017-02-22T03:12:28.856Z,0
2017-02-22T03:13:28.508Z,0
2017-02-22T03:14:28.906Z,0
2017-02-22T03:15:28.900Z,0
2017-02-22T03:16:28.930Z,0
2017-02-22T03:17:28.937Z,0
2017-02-22T03:18:28.971Z,0
2017-02-22T03:19:28.973Z,0
2017-02-22T03:20:28.601Z,0
2017-02-22T03:22:28.650Z,0
2017-02-22T03:23:28.668Z,0
2017-02-22T03:24:28.689Z,0
2017-02-22T03:25:29.088Z,0
2017-02-22T03:26:29.098Z,0
2017-02-22T03:27:29.146Z,0
2017-02-22T03:28:28.359Z,0
2017-02-22T03:29:29.148Z,0
2017-02-22T03:30:28.786Z,0
2017-02-22T03:31:29.207Z,0
2017-02-22T03:33:29.219Z,0
2017-02-22T03:34:29.234Z,0
2017-02-22T03:35:29.258Z,0
2017-02-22T03:36:29.270Z,0
2017-02-22T03:37:29.301Z,0
2017-02-22T03:38:58.360Z,0
2017-02-22T03:39:29.321Z,0
2017-02-22T03:40:29.348Z,0
2017-02-22T03:41:29.356Z,0
2017-02-22T03:42:29.394Z,0
2017-02-22T03:43:29.395Z,0
2017-02-22T03:44:29.428Z,0
2017-02-22T03:45:29.434Z,0
2017-02-22T03:46:29.461Z,0
2017-02-22T03:47:43.993Z,0
2017-02-22T03:48:29.489Z,0
2017-02-22T03:49:29.127Z,0
2017-02-22T03:51:44.076Z,0
2017-02-22T03:52:29.569Z,0
2017-02-22T03:53:29.605Z,0
2017-02-22T03:54:44.125Z,0
2017-02-22T03:55:29.619Z,0
2017-02-22T03:56:29.931Z,0
2017-02-22T03:57:29.641Z,0
2017-02-22T03:58:29.283Z,0
2017-02-22T03:59:29.682Z,0
2017-02-22T04:00:29.709Z,0
2017-02-22T04:02:43.873Z,0
2017-02-22T04:03:29.748Z,0
2017-02-22T04:05:29.788Z,0
2017-02-22T04:06:29.817Z,0
2017-02-22T04:07:29.819Z,0
2017-02-22T04:08:44.408Z,0
2017-02-22T04:09:29.467Z,0
2017-02-22T04:10:44.399Z,0
2017-02-22T04:11:29.889Z,0
2017-02-22T04:12:29.912Z,0
2017-02-22T04:13:44.475Z,0
2017-02-22T04:14:29.951Z,0
2017-02-22T04:15:29.969Z,0
2017-02-22T04:16:29.991Z,0
2017-02-22T04:17:30.005Z,0
2017-02-22T04:18:30.059Z,0
2017-02-22T04:19:30.036Z,0
2017-02-22T04:20:30.057Z,0
2017-02-22T04:21:44.592Z,0
2017-02-22T04:22:44.610Z,0
2017-02-22T04:23:30.105Z,0
2017-02-22T04:24:44.659Z,0
2017-02-22T04:25:30.171Z,0
2017-02-22T04:26:44.683Z,0
2017-02-22T04:27:30.174Z,0
2017-02-22T04:28:30.200Z,0
2017-02-22T04:29:30.208Z,0
2017-02-22T04:30:30.253Z,0
2017-02-22T04:31:30.242Z,0
2017-02-22T04:32:30.263Z,0
2017-02-22T04:33:44.809Z,0
2017-02-22T04:34:30.305Z,0
2017-02-22T04:35:30.329Z,0
2017-02-22T04:36:29.569Z,0
2017-02-22T04:37:30.351Z,0
2017-02-22T04:38:30.368Z,0
2017-02-22T04:39:30.412Z,0
2017-02-22T04:40:30.407Z,0
2017-02-22T04:41:44.955Z,0
2017-02-22T04:42:30.059Z,0
2017-02-22T04:43:30.472Z,0
2017-02-22T04:44:45.005Z,0
2017-02-22T04:45:30.495Z,0
2017-02-22T04:46:45.042Z,0
2017-02-22T04:47:30.529Z,0
2017-02-22T04:48:30.556Z,0
2017-02-22T04:49:30.590Z,0
2017-02-22T04:50:30.592Z,0
2017-02-22T04:51:30.598Z,0
2017-02-22T04:52:30.620Z,0
2017-02-22T04:54:30.666Z,0
2017-02-22T04:55:30.672Z,0
2017-02-22T04:56:30.710Z,0
2017-02-22T04:57:30.347Z,0
2017-02-22T04:58:30.743Z,0
2017-02-22T04:59:45.296Z,0
2017-02-22T05:00:30.773Z,0
2017-02-22T05:01:30.791Z,0
2017-02-22T05:02:30.414Z,0
2017-02-22T05:03:30.821Z,0
2017-02-22T05:04:30.462Z,0
2017-02-22T05:05:30.849Z,0
2017-02-22T05:06:30.499Z,0
2017-02-22T05:07:30.890Z,0
2017-02-22T05:08:45.434Z,0
2017-02-22T05:09:30.960Z,0
2017-02-22T05:10:30.943Z,0
2017-02-22T05:11:30.960Z,0
2017-02-22T05:12:31.018Z,0
2017-02-22T05:13:45.540Z,0
2017-02-22T05:14:30.629Z,0
2017-02-22T05:15:31.034Z,0
2017-02-22T05:16:31.077Z,0
2017-02-22T05:17:31.074Z,0
2017-02-22T05:18:31.093Z,0
2017-02-22T05:19:31.137Z,0
2017-02-22T05:20:45.655Z,0
2017-02-22T05:21:31.141Z,0
2017-02-22T05:22:31.158Z,0
2017-02-22T05:23:31.201Z,0
2017-02-22T05:25:31.212Z,0
2017-02-22T05:26:31.231Z,0
2017-02-22T05:27:30.885Z,0
2017-02-22T05:28:31.267Z,0
2017-02-22T05:29:45.828Z,0
2017-02-22T05:30:31.309Z,0
2017-02-22T05:31:31.382Z,0
2017-02-22T05:32:31.354Z,0
2017-02-22T05:33:31.361Z,0
2017-02-22T05:34:31.384Z,0
2017-02-22T05:35:31.422Z,0
2017-02-22T05:36:45.944Z,0
2017-02-22T05:37:31.465Z,0
2017-02-22T05:38:31.451Z,0
2017-02-22T05:39:31.492Z,0
2017-02-22T05:40:31.496Z,0
2017-02-22T05:41:31.127Z,0
2017-02-22T05:42:31.526Z,0
2017-02-22T05:43:31.557Z,0
2017-02-22T05:44:31.568Z,0
2017-02-22T05:45:46.107Z,0
2017-02-22T05:46:31.606Z,0
2017-02-22T05:47:46.149Z,0
2017-02-22T05:48:46.167Z,0
2017-02-22T05:49:31.654Z,0
2017-02-22T05:50:46.196Z,4
2017-02-22T05:51:46.214Z,0
2017-02-22T05:52:31.751Z,4
2017-02-22T05:53:31.737Z,4
2017-02-22T05:54:46.285Z,4
2017-02-22T05:55:31.758Z,4
2017-02-22T05:56:31.786Z,8
2017-02-22T05:57:31.802Z,8
2017-02-22T05:58:31.821Z,8
2017-02-22T05:59:31.835Z,8
2017-02-22T06:00:31.853Z,12
2017-02-22T06:02:31.892Z,12
2017-02-22T06:03:31.913Z,12
2017-02-22T06:04:31.925Z,12
2017-02-22T06:05:46.473Z,16
2017-02-22T06:06:31.205Z,16
2017-02-22T06:07:31.988Z,16
2017-02-22T06:08:46.545Z,20
2017-02-22T06:09:32.021Z,20
2017-02-22T06:11:31.688Z,24
2017-02-22T06:12:31.701Z,32
2017-02-22T06:13:32.108Z,36
2017-02-22T06:14:32.129Z,36
2017-02-22T06:15:32.131Z,44
2017-02-22T06:16:46.690Z,44
2017-02-22T06:17:32.171Z,44
2017-02-22T06:18:32.194Z,48
2017-02-22T06:19:32.201Z,52
2017-02-22T06:20:32.227Z,48
2017-02-22T06:21:32.254Z,52
2017-02-22T06:22:32.262Z,56
2017-02-22T06:23:31.897Z,64
2017-02-22T06:24:31.917Z,64
2017-02-22T06:25:31.936Z,76
2017-02-22T06:26:32.352Z,80
2017-02-22T06:27:32.006Z,84
2017-02-22T06:28:32.386Z,88
2017-02-22T06:29:32.005Z,96
2017-02-22T06:30:32.027Z,104
2017-02-22T06:31:32.441Z,112
2017-02-22T06:32:32.066Z,116
2017-02-22T06:33:32.086Z,116
2017-02-22T06:34:32.501Z,132
2017-02-22T06:35:32.517Z,152
2017-02-22T06:36:32.520Z,172
2017-02-22T06:37:32.562Z,184
2017-02-22T06:38:32.170Z,196
2017-02-22T06:39:32.583Z,200
2017-02-22T06:40:32.599Z,204
2017-02-22T06:41:32.621Z,180
2017-02-22T06:44:32.689Z,168
2017-02-22T06:46:32.725Z,180
2017-02-22T06:47:32.747Z,176
2017-02-22T06:48:47.276Z,176
2017-02-22T06:49:32.765Z,184
2017-02-22T06:50:32.786Z,192
2017-02-22T06:51:32.807Z,200
2017-02-22T06:52:47.354Z,208
2017-02-22T06:53:32.854Z,224
2017-02-22T06:54:32.864Z,228
2017-02-22T06:55:32.894Z,232
2017-02-22T06:56:32.919Z,240
2017-02-22T06:57:32.928Z,244
2017-02-22T06:58:32.997Z,256
2017-02-22T06:59:32.965Z,260
2017-02-22T07:00:32.979Z,260
2017-02-22T07:01:32.996Z,260
2017-02-22T07:02:47.538Z,296
2017-02-22T07:03:33.035Z,316
2017-02-22T07:04:47.579Z,352
2017-02-22T07:05:33.077Z,340
2017-02-22T07:06:33.098Z,328
2017-02-22T07:07:33.108Z,324
2017-02-22T07:08:47.690Z,372
2017-02-22T07:09:33.159Z,364
2017-02-22T07:10:33.164Z,396
2017-02-22T07:11:33.201Z,416
2017-02-22T07:12:33.221Z,408
2017-02-22T07:14:33.246Z,492
2017-02-22T07:15:33.282Z,472
2017-02-22T07:16:33.281Z,484
2017-02-22T07:17:33.308Z,524
2017-02-22T07:19:33.362Z,484
2017-02-22T07:20:47.900Z,536
2017-02-22T07:21:33.392Z,584
2017-02-22T07:22:33.397Z,632
2017-02-22T07:23:33.417Z,688
2017-02-22T07:24:33.440Z,724
2017-02-22T07:25:47.989Z,720
2017-02-22T07:26:33.487Z,768
2017-02-22T07:27:33.502Z,820
2017-02-22T07:28:33.527Z,820
2017-02-22T07:29:33.530Z,816
2017-02-22T07:30:33.594Z,836
2017-02-22T07:31:33.580Z,840
2017-02-22T07:32:33.592Z,812
2017-02-22T07:33:47.752Z,876
2017-02-22T07:34:33.630Z,880
2017-02-22T07:35:33.665Z,880
2017-02-22T07:37:02.341Z,864
2017-02-22T07:37:33.693Z,804
2017-02-22T07:38:33.743Z,784
2017-02-22T07:39:33.758Z,880
2017-02-22T07:40:33.747Z,836
2017-02-22T07:41:33.787Z,788
2017-02-22T07:42:48.318Z,828
2017-02-22T07:43:33.825Z,776
2017-02-22T07:44:33.830Z,792
2017-02-22T07:46:33.868Z,768
2017-02-22T07:47:33.894Z,788
2017-02-22T07:48:33.913Z,848
2017-02-22T07:49:33.929Z,864
2017-02-22T07:50:33.947Z,896
2017-02-22T07:51:48.506Z,920
2017-02-22T07:52:34.026Z,928
2017-02-22T07:53:34.034Z,844
2017-02-22T07:54:34.027Z,1032
2017-02-22T07:55:34.060Z,1108
2017-02-22T07:56:34.068Z,996
2017-02-22T07:58:34.112Z,1004
2017-02-22T07:59:34.142Z,1120
2017-02-22T08:00:34.155Z,1036
2017-02-22T08:01:48.696Z,1068
2017-02-22T08:02:34.214Z,992
2017-02-22T08:03:34.218Z,836
2017-02-22T08:04:48.761Z,768
2017-02-22T08:05:34.245Z,696
2017-02-22T08:06:34.276Z,696
2017-02-22T08:07:34.287Z,820
2017-02-22T08:08:34.320Z,888
2017-02-22T08:09:34.369Z,980
2017-02-22T08:10:34.363Z,856
2017-02-22T08:11:34.381Z,788
2017-02-22T08:12:34.394Z,792
2017-02-22T08:13:34.433Z,748
2017-02-22T08:14:34.441Z,740
2017-02-22T08:15:34.451Z,676
2017-02-22T08:16:34.470Z,688
2017-02-22T08:17:49.023Z,608
2017-02-22T08:18:34.531Z,584
2017-02-22T08:19:34.539Z,632
2017-02-22T08:20:34.547Z,612
2017-02-22T08:21:34.571Z,648
2017-02-22T08:22:34.590Z,788
2017-02-22T08:23:49.177Z,900
2017-02-22T08:24:48.777Z,920
2017-02-22T08:25:34.670Z,904
2017-02-22T08:26:34.679Z,976
2017-02-22T08:27:34.689Z,824
2017-02-22T08:28:34.743Z,852
2017-02-22T08:29:34.766Z,952
2017-02-22T08:30:34.628Z,1112
2017-02-22T08:31:34.389Z,1100
2017-02-22T08:32:49.318Z,1096
2017-02-22T08:33:34.826Z,1144
2017-02-22T08:34:34.838Z,1028
2017-02-22T08:35:34.892Z,1172
2017-02-22T08:36:34.882Z,1052
2017-02-22T08:37:34.915Z,1108
2017-02-22T08:38:34.919Z,988
2017-02-22T08:39:49.471Z,912
2017-02-22T08:40:49.491Z,988
2017-02-22T08:41:34.990Z,1180
2017-02-22T08:42:35.014Z,1256
2017-02-22T08:43:35.021Z,1320
2017-02-22T08:44:35.033Z,1576
2017-02-22T08:45:35.058Z,1920
2017-02-22T08:46:35.100Z,2040
2017-02-22T08:47:35.100Z,1656
2017-02-22T08:48:49.663Z,1684
2017-02-22T08:49:35.150Z,1624
2017-02-22T08:50:35.159Z,1564
2017-02-22T08:51:35.177Z,1736
2017-02-22T08:52:35.199Z,1764
2017-02-22T08:53:35.229Z,1716
2017-02-22T08:54:49.773Z,1728
2017-02-22T08:55:49.790Z,2100
2017-02-22T08:56:35.282Z,2036
2017-02-22T08:57:35.313Z,2024
2017-02-22T08:58:35.326Z,2468
2017-02-22T08:59:35.350Z,2764
2017-02-22T09:00:35.366Z,3064
2017-02-22T09:01:35.418Z,3084
2017-02-22T09:02:35.422Z,3484
2017-02-22T09:03:35.422Z,2900
2017-02-22T09:04:49.975Z,3324
2017-02-22T09:05:35.483Z,3948
2017-02-22T09:06:35.489Z,3624
2017-02-22T09:07:35.533Z,3744
2017-02-22T09:08:35.533Z,3880
2017-02-22T09:09:35.562Z,3264
2017-02-22T09:10:35.569Z,3660
2017-02-22T09:11:50.121Z,3576
2017-02-22T09:12:35.622Z,3396
2017-02-22T09:13:35.632Z,3612
2017-02-22T09:14:35.665Z,3692
2017-02-22T09:15:35.684Z,4136
2017-02-22T09:16:35.333Z,4116
2017-02-22T09:17:35.347Z,3840
2017-02-22T09:18:50.268Z,3436
2017-02-22T09:19:35.378Z,3432
2017-02-22T09:20:35.786Z,3388
2017-02-22T09:21:35.810Z,3472
2017-02-22T09:22:35.827Z,3268
2017-02-22T09:23:35.848Z,3296
2017-02-22T09:24:35.906Z,3216
2017-02-22T09:25:35.900Z,3428
2017-02-22T09:26:50.441Z,3072
2017-02-22T09:27:35.938Z,2820
2017-02-22T09:28:35.947Z,2376
2017-02-22T09:29:35.989Z,2164
2017-02-22T09:30:35.994Z,2116
2017-02-22T09:31:50.542Z,1816
2017-02-22T09:32:36.065Z,1816
2017-02-22T09:33:36.060Z,1800
2017-02-22T09:34:36.088Z,1720
2017-02-22T09:35:36.109Z,1840
2017-02-22T09:36:36.122Z,2112
2017-02-22T09:37:36.163Z,2124
2017-02-22T09:38:35.776Z,2180
2017-02-22T09:39:36.195Z,2356
2017-02-22T09:40:36.198Z,2288
2017-02-22T09:41:36.223Z,2348
2017-02-22T09:42:36.246Z,2456
2017-02-22T09:43:36.261Z,2204
2017-02-22T09:44:36.288Z,2072
2017-02-22T09:45:36.307Z,2312
2017-02-22T09:46:36.340Z,2568
2017-02-22T09:47:50.876Z,2932
2017-02-22T09:48:36.389Z,2904
2017-02-22T09:49:36.397Z,2916
2017-02-22T09:52:36.473Z,3108
2017-02-22T09:54:36.119Z,2720
2017-02-22T09:55:51.052Z,2680
2017-02-22T09:56:36.164Z,2676
2017-02-22T09:57:36.569Z,2728
2017-02-22T09:58:50.730Z,2932
2017-02-22T09:59:36.602Z,2796
2017-02-22T10:00:36.236Z,2612
2017-02-22T10:01:36.645Z,2896
2017-02-22T10:02:36.670Z,2784
2017-02-22T10:03:36.698Z,2032
2017-02-22T10:04:51.236Z,1996
2017-02-22T10:05:36.758Z,1788
2017-02-22T10:06:51.294Z,1556
2017-02-22T10:07:51.299Z,1564
2017-02-22T10:08:36.792Z,1720
2017-02-22T10:09:51.354Z,1812
2017-02-22T10:10:36.832Z,1964
2017-02-22T10:11:36.861Z,1844
2017-02-22T10:12:36.872Z,2092
2017-02-22T10:13:36.903Z,1964
2017-02-22T10:14:51.474Z,1804
2017-02-22T10:15:51.489Z,1772
2017-02-22T10:16:36.959Z,1776
2017-02-22T10:19:37.039Z,2000
2017-02-22T10:20:37.042Z,1984
2017-02-22T10:21:37.076Z,1972
2017-02-22T10:22:37.096Z,1716
2017-02-22T10:23:37.112Z,1756
2017-02-22T10:25:37.150Z,1852
2017-02-22T10:26:37.203Z,1944
2017-02-22T10:27:51.732Z,2484
2017-02-22T10:28:37.211Z,2072
2017-02-22T10:30:51.781Z,1756
2017-02-22T10:31:37.291Z,1800
2017-02-22T10:32:37.321Z,1840
2017-02-22T10:33:37.317Z,1560
2017-02-22T10:34:37.792Z,1540
2017-02-22T10:35:37.364Z,1692
2017-02-22T10:36:37.381Z,1928
2017-02-22T10:37:37.415Z,1980
2017-02-22T10:38:37.432Z,2148
2017-02-22T10:39:51.985Z,2724
2017-02-22T10:40:37.496Z,2768
2017-02-22T10:41:37.495Z,3056
2017-02-22T10:42:37.530Z,3040
2017-02-22T10:43:37.527Z,2692
2017-02-22T10:44:37.585Z,2868
2017-02-22T10:45:37.575Z,2548
2017-02-22T10:46:52.125Z,2520
2017-02-22T10:47:37.616Z,2656
2017-02-22T10:48:52.184Z,2036
2017-02-22T10:49:37.666Z,1784
2017-02-22T10:52:37.744Z,2096
2017-02-22T10:53:37.750Z,2708
2017-02-22T10:54:37.763Z,2800
2017-02-22T10:55:37.784Z,2716
2017-02-22T10:56:37.811Z,2652
2017-02-22T10:58:37.849Z,2376
2017-02-22T10:59:37.875Z,2448
2017-02-22T11:00:37.892Z,2116
2017-02-22T11:02:37.946Z,1780
2017-02-22T11:03:37.970Z,1888
2017-02-22T11:04:38.006Z,2044
2017-02-22T11:05:38.021Z,2416
2017-02-22T11:06:52.555Z,2232
2017-02-22T11:07:38.044Z,2004
2017-02-22T11:08:38.061Z,1908
2017-02-22T11:09:38.120Z,1868
2017-02-22T11:10:38.108Z,1704
2017-02-22T11:11:38.130Z,1764
2017-02-22T11:12:38.158Z,1764
2017-02-22T11:13:38.180Z,1588
2017-02-22T11:14:38.203Z,1864
2017-02-22T11:15:38.226Z,1904
2017-02-22T11:17:37.883Z,1816
2017-02-22T11:18:38.291Z,2544
2017-02-22T11:19:52.835Z,2920
2017-02-22T11:20:38.319Z,2668
2017-02-22T11:21:38.342Z,2272
2017-02-22T11:22:38.382Z,1760
2017-02-22T11:23:37.997Z,1504
2017-02-22T11:24:38.033Z,1548
2017-02-22T11:25:52.957Z,2000
2017-02-22T11:26:38.475Z,1972
2017-02-22T11:27:38.494Z,2176
2017-02-22T11:28:38.492Z,2344
2017-02-22T11:29:38.158Z,2608
2017-02-22T11:30:38.161Z,3664
2017-02-22T11:31:38.170Z,4184
2017-02-22T11:32:53.116Z,3496
2017-02-22T11:33:53.129Z,3608
2017-02-22T11:34:38.619Z,3092
2017-02-22T11:35:38.648Z,2436
2017-02-22T11:36:38.660Z,2176
2017-02-22T11:37:38.296Z,2504
2017-02-22T11:38:38.721Z,2672
2017-02-22T11:39:38.742Z,2612
2017-02-22T11:40:38.368Z,2340
2017-02-22T11:41:38.410Z,2744
2017-02-22T11:42:38.792Z,2732
2017-02-22T11:43:38.819Z,2704
2017-02-22T11:44:38.855Z,1992
2017-02-22T11:45:38.860Z,1928
2017-02-22T11:46:38.882Z,2240
2017-02-22T11:47:38.901Z,2312
2017-02-22T11:48:38.919Z,2088
2017-02-22T11:49:53.479Z,1744
2017-02-22T11:50:38.983Z,2108
2017-02-22T11:51:39.012Z,1956
2017-02-22T11:52:39.005Z,2204
2017-02-22T11:53:39.028Z,2352
2017-02-22T11:54:39.047Z,2976
2017-02-22T11:55:39.090Z,2952
2017-02-22T11:56:39.090Z,2828
2017-02-22T11:58:39.141Z,3632
2017-02-22T11:59:39.166Z,3184
2017-02-22T12:00:39.185Z,2840
2017-02-22T12:01:39.212Z,2936
2017-02-22T12:02:38.838Z,3156
2017-02-22T12:03:39.242Z,3136
2017-02-22T12:04:39.263Z,2944
2017-02-22T12:05:53.813Z,2248
2017-02-22T12:06:39.332Z,2112
2017-02-22T12:07:39.343Z,2444
2017-02-22T12:08:39.360Z,2228
2017-02-22T12:09:39.371Z,2908
2017-02-22T12:10:53.920Z,2544
2017-02-22T12:11:53.940Z,2624
2017-02-22T12:12:39.449Z,2572
2017-02-22T12:13:39.456Z,2688
2017-02-22T12:14:39.481Z,2560
2017-02-22T12:15:39.516Z,2692
2017-02-22T12:16:39.137Z,2712
2017-02-22T12:17:39.544Z,3796
2017-02-22T12:18:39.565Z,3260
2017-02-22T12:19:39.595Z,2740
2017-02-22T12:20:39.619Z,3032
2017-02-22T12:21:54.160Z,3628
2017-02-22T12:22:39.667Z,4040
2017-02-22T12:23:39.678Z,3696
2017-02-22T12:24:39.694Z,2648
2017-02-22T12:25:39.715Z,2756
2017-02-22T12:26:54.266Z,2616
2017-02-22T12:27:54.288Z,2700
2017-02-22T12:28:39.789Z,2652
2017-02-22T12:29:39.799Z,2996
2017-02-22T12:30:39.831Z,4532
2017-02-22T12:32:39.482Z,6760
2017-02-22T12:33:40.212Z,6752
2017-02-22T12:34:39.548Z,5176
2017-02-22T12:35:39.931Z,4868
2017-02-22T12:36:54.097Z,4284
2017-02-22T12:37:39.979Z,4312
2017-02-22T12:38:40.021Z,3592
2017-02-22T12:39:39.637Z,4716
2017-02-22T12:40:40.051Z,4472
2017-02-22T12:41:40.085Z,4344
2017-02-22T12:42:40.101Z,3184
2017-02-22T12:43:40.119Z,2512
2017-02-22T12:45:40.156Z,2760
2017-02-22T12:46:40.177Z,2276
2017-02-22T12:47:40.205Z,1800
2017-02-22T12:49:54.780Z,1632
2017-02-22T12:50:40.269Z,1736
2017-02-22T12:51:40.307Z,1116
2017-02-22T12:52:40.310Z,1276
2017-02-22T12:53:40.336Z,984
2017-02-22T12:54:40.370Z,1000
2017-02-22T12:55:54.536Z,1532
2017-02-22T12:56:54.536Z,1832
2017-02-22T12:57:40.427Z,1960
2017-02-22T12:58:40.450Z,2292
2017-02-22T12:59:40.473Z,2552
2017-02-22T13:00:40.478Z,3184
2017-02-22T13:01:55.030Z,2796
2017-02-22T13:02:40.154Z,2356
2017-02-22T13:03:40.544Z,1756
2017-02-22T13:04:40.600Z,1628
2017-02-22T13:05:40.586Z,1716
2017-02-22T13:06:40.648Z,1188
2017-02-22T13:07:40.633Z,868
2017-02-22T13:08:54.795Z,580
2017-02-22T13:09:40.701Z,584
2017-02-22T13:10:40.738Z,748
2017-02-22T13:11:40.718Z,1388
2017-02-22T13:12:40.362Z,2576
2017-02-22T13:13:40.793Z,3528
2017-02-22T13:14:40.792Z,3580
2017-02-22T13:15:55.335Z,3576
2017-02-22T13:16:40.826Z,3812
2017-02-22T13:17:55.376Z,3068
2017-02-22T13:18:55.412Z,2300
2017-02-22T13:19:40.897Z,1376
2017-02-22T13:20:40.546Z,1068
2017-02-22T13:21:40.931Z,1256
2017-02-22T13:22:40.954Z,1332
2017-02-22T13:23:40.978Z,1492
2017-02-22T13:24:55.530Z,1884
2017-02-22T13:25:41.032Z,2344
2017-02-22T13:26:41.048Z,2748
2017-02-22T13:27:40.669Z,2808
2017-02-22T13:29:41.121Z,3132
2017-02-22T13:30:41.120Z,3064
2017-02-22T13:32:40.785Z,1760
2017-02-22T13:33:40.823Z,1836
2017-02-22T13:34:40.846Z,3420
2017-02-22T13:35:41.234Z,4452
2017-02-22T13:36:41.269Z,3820
2017-02-22T13:37:55.799Z,2736
2017-02-22T13:38:41.298Z,3108
2017-02-22T13:39:40.934Z,4020
2017-02-22T13:40:55.887Z,3988
2017-02-22T13:41:41.371Z,4272
2017-02-22T13:42:41.381Z,4872
2017-02-22T13:43:41.434Z,4940
2017-02-22T13:44:41.451Z,4716
2017-02-22T13:45:55.971Z,4592
2017-02-22T13:46:41.474Z,4404
2017-02-22T13:48:41.124Z,3744
2017-02-22T13:49:41.533Z,3900
2017-02-22T13:50:41.552Z,4140
2017-02-22T13:51:41.586Z,4084
2017-02-22T13:53:41.630Z,3360
2017-02-22T13:54:41.640Z,2836
2017-02-22T13:55:41.670Z,2340
2017-02-22T13:56:55.823Z,2132
2017-02-22T13:57:41.728Z,2124
2017-02-22T13:58:41.725Z,2156
2017-02-22T13:59:41.766Z,2204
2017-02-22T14:00:41.791Z,2660
2017-02-22T14:01:41.799Z,2116
2017-02-22T14:04:56.385Z,1392
2017-02-22T14:05:41.934Z,1336
2017-02-22T14:06:41.906Z,1636
2017-02-22T14:07:41.934Z,1784
2017-02-22T14:08:41.967Z,1856
2017-02-22T14:09:41.959Z,1708
2017-02-22T14:10:42.017Z,1640
2017-02-22T14:11:56.539Z,1512
2017-02-22T14:12:42.078Z,1568
2017-02-22T14:13:42.081Z,1660
2017-02-22T14:14:42.081Z,2028
2017-02-22T14:15:42.106Z,2148
2017-02-22T14:16:42.117Z,2264
2017-02-22T14:17:56.663Z,2404
2017-02-22T14:18:41.819Z,2560
2017-02-22T14:19:42.179Z,2688
2017-02-22T14:20:42.202Z,2544
2017-02-22T14:21:42.223Z,2404
2017-02-22T14:22:56.772Z,2384
2017-02-22T14:23:42.270Z,2400
2017-02-22T14:24:42.290Z,2328
2017-02-22T14:25:42.311Z,2268
2017-02-22T14:26:42.341Z,2288
2017-02-22T14:27:42.395Z,2212
2017-02-22T14:28:42.388Z,2068
2017-02-22T14:29:42.395Z,1720
2017-02-22T14:30:56.949Z,1348
2017-02-22T14:31:42.451Z,1232
2017-02-22T14:32:56.629Z,1084
2017-02-22T14:33:57.017Z,1060
2017-02-22T14:34:42.502Z,1012
2017-02-22T14:35:42.538Z,964
2017-02-22T14:37:57.115Z,832
2017-02-22T14:38:42.610Z,760
2017-02-22T14:39:42.640Z,720
2017-02-22T14:40:42.639Z,644
2017-02-22T14:41:42.664Z,508
2017-02-22T14:42:42.702Z,400
2017-02-22T14:43:56.838Z,332
2017-02-22T14:44:42.718Z,368
2017-02-22T14:45:42.775Z,316
2017-02-22T14:46:42.783Z,400
2017-02-22T14:47:42.401Z,432
2017-02-22T14:49:42.831Z,512
2017-02-22T14:50:42.848Z,556
2017-02-22T14:51:42.870Z,540
2017-02-22T14:52:42.895Z,488